Time;durP1;ratioP1;P1;durP2;ratioP2;P2;SDS_P1;SDS_P2;PMS_P1;PMS_P2;Temp;Humidity;BMP_temperature;BMP_pressure;BME280_temperature;BME280_humidity;BME280_pressure;Samples;Min_cycle;Max_cycle;Signal;HPM_P1;HPM_P2
2021/03/04 00:00:16;;;;;;;5.07;3.92;;;;;;;19.22;45.33;101147.98;;;;-51
2021/03/04 00:03:16;;;;;;;5.15;4.11;;;;;;;19.21;45.35;101141.28;;;;-51
2021/03/04 00:06:16;;;;;;;4.22;3.82;;;;;;;19.19;45.35;101141.41;;;;-51
2021/03/04 00:09:16;;;;;;;4.60;4.03;;;;;;;19.17;45.36;101140.56;;;;-51
2021/03/04 00:12:16;;;;;;;4.51;4.04;;;;;;;19.15;45.35;101141.98;;;;-51
2021/03/04 00:15:16;;;;;;;4.55;4.13;;;;;;;19.13;45.37;101140.19;;;;-51
2021/03/04 00:18:16;;;;;;;4.63;4.02;;;;;;;19.11;45.34;101132.67;;;;-51
2021/03/04 00:21:16;;;;;;;4.64;4.23;;;;;;;19.09;45.41;101126.30;;;;-52
2021/03/04 00:24:16;;;;;;;4.33;3.93;;;;;;;19.08;45.37;101129.19;;;;-51
2021/03/04 00:27:16;;;;;;;5.01;4.17;;;;;;;19.07;45.38;101125.13;;;;-51
2021/03/04 00:30:16;;;;;;;4.59;4.08;;;;;;;19.04;45.37;101124.56;;;;-51
2021/03/04 00:33:16;;;;;;;4.43;4.03;;;;;;;19.03;45.37;101123.83;;;;-51
2021/03/04 00:36:16;;;;;;;4.30;3.90;;;;;;;19.01;45.42;101119.08;;;;-51
2021/03/04 00:39:16;;;;;;;4.42;3.98;;;;;;;19.00;45.44;101118.15;;;;-51
2021/03/04 00:42:16;;;;;;;4.65;4.15;;;;;;;18.98;45.39;101109.91;;;;-51
2021/03/04 00:45:16;;;;;;;4.33;3.93;;;;;;;18.95;45.43;101104.91;;;;-51
2021/03/04 00:48:16;;;;;;;4.65;4.05;;;;;;;18.94;45.45;101104.80;;;;-51
2021/03/04 00:51:16;;;;;;;4.39;3.97;;;;;;;18.92;45.46;101103.45;;;;-51
2021/03/04 00:54:16;;;;;;;4.37;3.97;;;;;;;18.91;45.45;101101.42;;;;-51
2021/03/04 00:57:16;;;;;;;4.47;4.07;;;;;;;18.89;45.49;101097.65;;;;-51
2021/03/04 01:00:16;;;;;;;5.05;4.27;;;;;;;18.88;45.48;101093.06;;;;-51
2021/03/04 01:03:16;;;;;;;4.52;4.12;;;;;;;18.86;45.47;101089.29;;;;-51
2021/03/04 01:06:17;;;;;;;4.41;3.76;;;;;;;18.85;45.51;101086.61;;;;-51
2021/03/04 01:09:16;;;;;;;4.46;3.98;;;;;;;18.83;45.53;101086.48;;;;-51
2021/03/04 01:12:16;;;;;;;4.63;4.09;;;;;;;18.82;45.56;101087.99;;;;-51
2021/03/04 01:15:16;;;;;;;4.57;4.17;;;;;;;18.80;45.58;101088.15;;;;-51
2021/03/04 01:18:16;;;;;;;4.79;4.29;;;;;;;18.79;45.57;101084.54;;;;-51
2021/03/04 01:21:16;;;;;;;4.99;4.15;;;;;;;18.76;45.58;101074.97;;;;-52
2021/03/04 01:24:16;;;;;;;4.68;4.17;;;;;;;18.75;45.53;101073.80;;;;-51
2021/03/04 01:27:16;;;;;;;4.33;3.87;;;;;;;18.74;45.55;101068.59;;;;-51
2021/03/04 01:30:16;;;;;;;4.71;4.09;;;;;;;18.72;45.56;101064.41;;;;-51
2021/03/04 01:33:16;;;;;;;4.58;4.17;;;;;;;18.71;45.58;101066.48;;;;-52
2021/03/04 01:36:16;;;;;;;4.56;4.13;;;;;;;18.70;45.63;101058.77;;;;-52
2021/03/04 01:39:16;;;;;;;4.81;3.89;;;;;;;18.68;45.63;101056.63;;;;-52
2021/03/04 01:42:16;;;;;;;4.68;4.14;;;;;;;18.67;45.63;101051.06;;;;-52
2021/03/04 01:45:16;;;;;;;5.15;4.05;;;;;;;18.66;45.64;101048.38;;;;-52
2021/03/04 01:48:16;;;;;;;4.54;4.07;;;;;;;18.64;45.66;101042.58;;;;-52
2021/03/04 01:51:16;;;;;;;4.53;3.95;;;;;;;18.62;45.68;101036.29;;;;-52
2021/03/04 01:54:17;;;;;;;4.68;4.18;;;;;;;18.61;45.67;101034.47;;;;-52
2021/03/04 01:57:16;;;;;;;4.81;3.89;;;;;;;18.60;45.64;101037.71;;;;-52
2021/03/04 02:00:16;;;;;;;4.31;3.91;;;;;;;18.60;45.67;101033.56;;;;-52
2021/03/04 02:03:16;;;;;;;5.13;4.15;;;;;;;18.58;45.65;101032.88;;;;-52
2021/03/04 02:06:16;;;;;;;4.40;3.93;;;;;;;18.57;45.70;101031.62;;;;-53
2021/03/04 02:09:16;;;;;;;4.57;4.03;;;;;;;18.55;45.67;101030.16;;;;-53
2021/03/04 02:12:16;;;;;;;4.54;3.91;;;;;;;18.54;45.69;101026.64;;;;-52
2021/03/04 02:15:16;;;;;;;4.58;4.08;;;;;;;18.54;45.75;101021.52;;;;-52
2021/03/04 02:18:16;;;;;;;4.47;3.99;;;;;;;18.52;45.69;101014.91;;;;-52
2021/03/04 02:21:16;;;;;;;4.43;4.03;;;;;;;18.51;45.70;101010.44;;;;-52
2021/03/04 02:24:16;;;;;;;4.31;3.91;;;;;;;18.50;45.71;101008.12;;;;-53
2021/03/04 02:27:16;;;;;;;4.24;3.77;;;;;;;18.49;45.70;101004.31;;;;-52
2021/03/04 02:30:16;;;;;;;4.21;3.81;;;;;;;18.48;45.70;100999.56;;;;-51
2021/03/04 02:33:16;;;;;;;5.05;4.22;;;;;;;18.47;45.73;100997.94;;;;-51
2021/03/04 02:36:16;;;;;;;4.44;3.97;;;;;;;18.45;45.72;100993.03;;;;-51
2021/03/04 02:39:16;;;;;;;4.43;4.03;;;;;;;18.44;45.79;100996.98;;;;-51
2021/03/04 02:42:16;;;;;;;4.73;4.11;;;;;;;18.44;45.72;100993.41;;;;-51
2021/03/04 02:45:16;;;;;;;4.72;4.29;;;;;;;18.43;45.73;100991.50;;;;-51
2021/03/04 02:48:16;;;;;;;4.59;4.13;;;;;;;18.42;45.71;100989.14;;;;-51
2021/03/04 02:51:16;;;;;;;4.56;4.14;;;;;;;18.41;45.75;100986.55;;;;-51
2021/03/04 02:54:16;;;;;;;4.44;3.93;;;;;;;18.40;45.77;100979.86;;;;-51
2021/03/04 02:57:16;;;;;;;4.79;4.14;;;;;;;18.37;45.78;100973.41;;;;-51
2021/03/04 03:00:16;;;;;;;4.30;3.90;;;;;;;18.38;45.76;100974.87;;;;-51
2021/03/04 03:03:16;;;;;;;4.29;3.89;;;;;;;18.36;45.78;100970.85;;;;-51
2021/03/04 03:06:16;;;;;;;4.53;4.13;;;;;;;18.36;45.79;100967.52;;;;-51
2021/03/04 03:09:16;;;;;;;4.38;3.97;;;;;;;18.34;45.76;100959.56;;;;-52
2021/03/04 03:12:16;;;;;;;4.41;4.00;;;;;;;18.33;45.75;100957.58;;;;-51
2021/03/04 03:15:16;;;;;;;4.53;4.05;;;;;;;18.32;45.76;100956.13;;;;-51
2021/03/04 03:18:16;;;;;;;4.40;4.00;;;;;;;18.32;45.75;100951.63;;;;-52
2021/03/04 03:21:16;;;;;;;4.50;4.10;;;;;;;18.30;45.82;100951.42;;;;-51
2021/03/04 03:24:16;;;;;;;4.46;4.06;;;;;;;18.29;45.76;100946.39;;;;-52
2021/03/04 03:27:16;;;;;;;4.59;4.19;;;;;;;18.28;45.79;100943.44;;;;-53
2021/03/04 03:30:16;;;;;;;4.45;3.96;;;;;;;18.28;45.78;100941.89;;;;-58
2021/03/04 03:33:16;;;;;;;4.49;4.09;;;;;;;18.27;45.76;100947.33;;;;-58
2021/03/04 03:36:16;;;;;;;4.24;3.84;;;;;;;18.26;45.80;100946.07;;;;-58
2021/03/04 03:39:16;;;;;;;4.41;4.01;;;;;;;18.25;45.80;100942.74;;;;-58
2021/03/04 03:42:16;;;;;;;4.35;3.95;;;;;;;18.24;45.81;100944.66;;;;-58
2021/03/04 03:45:16;;;;;;;4.21;3.81;;;;;;;18.24;45.79;100945.70;;;;-58
2021/03/04 03:48:16;;;;;;;4.61;4.10;;;;;;;18.22;45.78;100940.91;;;;-58
2021/03/04 03:51:16;;;;;;;4.41;4.01;;;;;;;18.21;45.76;100942.91;;;;-58
2021/03/04 03:54:16;;;;;;;4.23;3.83;;;;;;;18.21;45.80;100946.23;;;;-58
2021/03/04 03:57:16;;;;;;;4.47;4.07;;;;;;;18.19;45.84;100943.44;;;;-58
2021/03/04 04:00:17;;;;;;;4.45;4.03;;;;;;;18.19;45.78;100938.08;;;;-58
2021/03/04 04:03:16;;;;;;;4.49;4.09;;;;;;;18.18;45.75;100935.45;;;;-58
2021/03/04 04:06:16;;;;;;;4.48;4.08;;;;;;;18.17;45.75;100929.28;;;;-58
2021/03/04 04:09:16;;;;;;;4.51;4.09;;;;;;;18.17;45.79;100930.25;;;;-58
2021/03/04 04:12:16;;;;;;;4.59;4.14;;;;;;;18.16;45.79;100927.95;;;;-58
2021/03/04 04:15:16;;;;;;;4.73;4.20;;;;;;;18.15;45.84;100923.56;;;;-58
2021/03/04 04:18:16;;;;;;;4.45;3.95;;;;;;;18.14;45.77;100925.91;;;;-58
2021/03/04 04:21:16;;;;;;;4.48;4.08;;;;;;;18.13;45.86;100921.17;;;;-58
2021/03/04 04:24:16;;;;;;;4.65;4.25;;;;;;;18.12;45.82;100915.25;;;;-58
2021/03/04 04:27:17;;;;;;;4.41;4.01;;;;;;;18.12;45.82;100916.70;;;;-58
2021/03/04 04:30:16;;;;;;;4.56;3.97;;;;;;;18.11;45.81;100914.40;;;;-58
2021/03/04 04:33:16;;;;;;;4.31;3.91;;;;;;;18.10;45.85;100913.42;;;;-58
2021/03/04 04:36:16;;;;;;;4.51;4.11;;;;;;;18.09;45.80;100913.62;;;;-58
2021/03/04 04:39:16;;;;;;;4.59;4.19;;;;;;;18.08;45.83;100912.00;;;;-58
2021/03/04 04:42:16;;;;;;;4.35;3.95;;;;;;;18.08;45.85;100905.11;;;;-58
2021/03/04 04:45:16;;;;;;;4.61;4.19;;;;;;;18.07;45.79;100903.94;;;;-58
2021/03/04 04:48:16;;;;;;;4.37;3.97;;;;;;;18.06;45.86;100901.02;;;;-57
2021/03/04 04:51:16;;;;;;;4.29;3.89;;;;;;;18.05;45.83;100902.20;;;;-58
2021/03/04 04:54:16;;;;;;;4.52;4.12;;;;;;;18.03;45.85;100896.91;;;;-58
2021/03/04 04:57:16;;;;;;;4.53;4.13;;;;;;;18.03;45.78;100895.50;;;;-58
2021/03/04 05:00:16;;;;;;;4.86;4.36;;;;;;;18.02;45.86;100894.28;;;;-58
2021/03/04 05:03:16;;;;;;;4.56;4.15;;;;;;;18.02;45.83;100894.20;;;;-51
2021/03/04 05:06:16;;;;;;;4.77;4.31;;;;;;;18.01;45.85;100893.20;;;;-51
2021/03/04 05:09:16;;;;;;;4.33;3.87;;;;;;;18.00;45.84;100891.65;;;;-54
2021/03/04 05:12:16;;;;;;;4.23;3.82;;;;;;;17.99;45.92;100896.64;;;;-53
2021/03/04 05:15:19;;;;;;;4.63;4.21;;;;;;;17.98;45.90;100898.09;;;;-54
2021/03/04 05:18:16;;;;;;;4.74;4.19;;;;;;;17.97;45.89;100897.45;;;;-53
2021/03/04 05:21:16;;;;;;;4.51;4.09;;;;;;;17.97;45.85;100889.55;;;;-54
2021/03/04 05:24:16;;;;;;;4.76;4.36;;;;;;;17.96;45.86;100887.77;;;;-57
2021/03/04 05:27:16;;;;;;;4.61;4.19;;;;;;;17.96;45.86;100879.41;;;;-58
2021/03/04 05:30:16;;;;;;;4.56;4.16;;;;;;;17.95;45.85;100874.22;;;;-58
2021/03/04 05:33:16;;;;;;;4.67;4.21;;;;;;;17.94;45.85;100867.37;;;;-58
2021/03/04 05:36:16;;;;;;;4.89;4.34;;;;;;;17.93;45.84;100868.98;;;;-58
2021/03/04 05:39:16;;;;;;;4.72;4.22;;;;;;;17.93;45.88;100875.06;;;;-58
2021/03/04 05:42:16;;;;;;;4.31;3.91;;;;;;;17.92;45.88;100876.66;;;;-58
2021/03/04 05:45:16;;;;;;;4.65;4.19;;;;;;;17.92;45.86;100872.27;;;;-58
2021/03/04 05:48:16;;;;;;;4.35;3.95;;;;;;;17.91;45.90;100874.63;;;;-58
2021/03/04 05:51:16;;;;;;;5.03;4.21;;;;;;;17.91;45.88;100876.89;;;;-52
2021/03/04 05:54:16;;;;;;;4.63;4.01;;;;;;;17.90;45.80;100871.66;;;;-50
2021/03/04 05:57:16;;;;;;;13.52;10.39;;;;;;;17.53;44.11;100864.72;;;;-51
2021/03/04 06:00:16;;;;;;;14.39;11.45;;;;;;;17.30;44.25;100859.05;;;;-49
2021/03/04 06:03:16;;;;;;;19.05;13.01;;;;;;;17.12;44.19;100864.27;;;;-58
2021/03/04 06:06:16;;;;;;;16.30;12.22;;;;;;;17.20;44.56;100859.72;;;;-53
2021/03/04 06:09:16;;;;;;;16.58;12.11;;;;;;;17.29;44.74;100861.41;;;;-54
2021/03/04 06:12:16;;;;;;;14.15;10.46;;;;;;;17.38;45.13;100865.31;;;;-53
2021/03/04 06:15:16;;;;;;;12.21;9.39;;;;;;;17.44;45.10;100863.66;;;;-53
2021/03/04 06:18:16;;;;;;;13.42;9.98;;;;;;;17.48;45.10;100860.59;;;;-54
2021/03/04 06:21:16;;;;;;;12.11;9.79;;;;;;;17.51;45.11;100863.71;;;;-53
2021/03/04 06:24:16;;;;;;;11.63;9.07;;;;;;;17.53;45.15;100863.83;;;;-58
2021/03/04 06:27:16;;;;;;;11.41;8.92;;;;;;;17.57;45.20;100871.62;;;;-58
2021/03/04 06:30:16;;;;;;;10.66;8.51;;;;;;;17.59;45.24;100867.28;;;;-58
2021/03/04 06:33:16;;;;;;;9.71;8.51;;;;;;;17.61;45.24;100860.11;;;;-58
2021/03/04 06:36:16;;;;;;;9.66;7.89;;;;;;;17.64;45.19;100870.70;;;;-53
2021/03/04 06:39:16;;;;;;;9.67;7.93;;;;;;;17.66;45.35;100869.07;;;;-54
2021/03/04 06:42:17;;;;;;;10.29;7.79;;;;;;;17.71;45.32;100870.62;;;;-53
2021/03/04 06:45:16;;;;;;;9.22;7.68;;;;;;;17.75;45.31;100870.94;;;;-53
2021/03/04 06:48:16;;;;;;;9.31;7.37;;;;;;;17.79;45.39;100871.51;;;;-58
2021/03/04 06:51:16;;;;;;;8.87;7.31;;;;;;;17.84;45.39;100865.88;;;;-59
2021/03/04 06:54:16;;;;;;;8.03;6.84;;;;;;;17.89;45.36;100866.06;;;;-59
2021/03/04 06:57:16;;;;;;;8.33;6.82;;;;;;;17.93;45.48;100858.52;;;;-58
2021/03/04 07:00:16;;;;;;;7.55;6.57;;;;;;;18.01;45.40;100859.78;;;;-58
2021/03/04 07:03:16;;;;;;;9.00;6.95;;;;;;;18.05;45.45;100856.12;;;;-58
2021/03/04 07:06:16;;;;;;;8.37;6.77;;;;;;;18.09;45.42;100854.26;;;;-58
2021/03/04 07:09:16;;;;;;;8.89;6.65;;;;;;;18.12;45.46;100861.95;;;;-59
2021/03/04 07:12:16;;;;;;;9.25;6.75;;;;;;;18.17;45.67;100864.22;;;;-58
2021/03/04 07:15:16;;;;;;;7.80;6.23;;;;;;;18.19;45.60;100857.77;;;;-58
2021/03/04 07:18:16;;;;;;;8.90;6.33;;;;;;;18.21;45.63;100850.67;;;;-58
2021/03/04 07:21:16;;;;;;;8.12;6.13;;;;;;;18.24;45.63;100842.22;;;;-58
2021/03/04 07:24:16;;;;;;;6.71;5.97;;;;;;;18.25;45.61;100838.90;;;;-58
2021/03/04 07:27:16;;;;;;;6.76;6.03;;;;;;;18.26;45.54;100842.66;;;;-58
2021/03/04 07:30:16;;;;;;;7.37;6.13;;;;;;;18.28;45.61;100831.09;;;;-58
2021/03/04 07:33:16;;;;;;;6.67;5.83;;;;;;;18.28;45.55;100828.02;;;;-54
2021/03/04 07:36:16;;;;;;;8.15;6.29;;;;;;;18.30;45.57;100818.20;;;;-54
2021/03/04 07:39:16;;;;;;;6.63;5.91;;;;;;;18.31;45.59;100820.91;;;;-54
2021/03/04 07:42:16;;;;;;;6.36;5.58;;;;;;;18.31;45.53;100815.48;;;;-54
2021/03/04 07:45:18;;;;;;;6.96;5.67;;;;;;;18.32;45.61;100818.89;;;;-54
2021/03/04 07:48:17;;;;;;;7.86;5.80;;;;;;;18.32;45.51;100821.31;;;;-53
2021/03/04 07:51:16;;;;;;;6.88;5.88;;;;;;;18.32;45.58;100820.78;;;;-54
2021/03/04 07:54:16;;;;;;;6.45;5.71;;;;;;;18.34;45.57;100823.14;;;;-54
2021/03/04 07:57:16;;;;;;;6.43;5.60;;;;;;;18.33;45.56;100819.48;;;;-52
2021/03/04 08:00:16;;;;;;;6.13;5.53;;;;;;;18.33;45.54;100817.38;;;;-52
2021/03/04 08:03:16;;;;;;;6.08;5.36;;;;;;;18.33;45.50;100812.34;;;;-54
2021/03/04 08:06:16;;;;;;;6.70;5.65;;;;;;;18.32;45.53;100818.35;;;;-54
2021/03/04 08:09:16;;;;;;;6.07;5.47;;;;;;;18.32;45.51;100825.38;;;;-52
2021/03/04 08:12:16;;;;;;;5.97;5.42;;;;;;;18.33;45.42;100817.70;;;;-52
2021/03/04 08:15:16;;;;;;;5.91;5.29;;;;;;;18.31;45.45;100816.20;;;;-53
2021/03/04 08:18:16;;;;;;;5.50;5.00;;;;;;;18.32;45.41;100807.84;;;;-58
2021/03/04 08:21:16;;;;;;;5.50;4.89;;;;;;;18.32;45.43;100801.92;;;;-53
2021/03/04 08:24:16;;;;;;;5.45;4.92;;;;;;;18.31;45.41;100797.70;;;;-52
2021/03/04 08:27:16;;;;;;;5.75;5.07;;;;;;;18.31;45.43;100793.65;;;;-52
2021/03/04 08:30:16;;;;;;;7.71;5.25;;;;;;;18.31;45.62;100792.68;;;;-52
2021/03/04 08:33:16;;;;;;;8.07;5.53;;;;;;;18.34;45.87;100784.52;;;;-51
2021/03/04 08:36:16;;;;;;;7.06;5.58;;;;;;;18.34;45.80;100781.22;;;;-47
2021/03/04 08:39:16;;;;;;;6.38;5.36;;;;;;;18.35;46.39;100779.92;;;;-46
2021/03/04 08:42:16;;;;;;;5.65;4.85;;;;;;;18.37;46.51;100778.09;;;;-48
2021/03/04 08:45:16;;;;;;;6.22;5.16;;;;;;;18.37;46.47;100771.03;;;;-60
2021/03/04 08:48:16;;;;;;;6.54;5.41;;;;;;;18.40;46.22;100769.77;;;;-59
2021/03/04 08:51:16;;;;;;;6.52;4.94;;;;;;;18.38;46.24;100760.08;;;;-53
2021/03/04 08:54:16;;;;;;;7.25;5.15;;;;;;;18.40;46.35;100758.16;;;;-52
2021/03/04 08:57:16;;;;;;;5.95;5.03;;;;;;;18.41;46.36;100760.88;;;;-61
2021/03/04 09:00:16;;;;;;;6.99;4.92;;;;;;;18.42;46.32;100760.30;;;;-59
2021/03/04 09:03:16;;;;;;;5.83;4.99;;;;;;;18.43;46.19;100755.63;;;;-51
2021/03/04 09:06:16;;;;;;;8.39;5.07;;;;;;;18.47;46.63;100756.10;;;;-52
2021/03/04 09:09:16;;;;;;;6.67;4.84;;;;;;;18.51;47.10;100755.11;;;;-50
2021/03/04 09:12:16;;;;;;;6.80;4.91;;;;;;;18.55;47.39;100752.00;;;;-51
2021/03/04 09:15:16;;;;;;;10.73;4.88;;;;;;;18.60;48.02;100750.36;;;;-52
2021/03/04 09:18:17;;;;;;;6.40;4.90;;;;;;;18.62;47.39;100747.14;;;;-46
2021/03/04 09:21:16;;;;;;;7.67;5.07;;;;;;;18.64;47.46;100738.48;;;;-48
2021/03/04 09:24:16;;;;;;;10.34;5.32;;;;;;;18.65;47.44;100737.35;;;;-50
2021/03/04 09:27:20;;;;;;;11.91;4.87;;;;;;;18.65;47.12;100736.30;;;;-54
2021/03/04 09:30:16;;;;;;;5.96;4.67;;;;;;;18.65;46.98;100734.75;;;;-49
2021/03/04 09:33:16;;;;;;;5.77;4.60;;;;;;;18.64;46.87;100727.37;;;;-52
2021/03/04 09:36:16;;;;;;;6.51;4.70;;;;;;;18.64;46.76;100720.95;;;;-60
2021/03/04 09:39:16;;;;;;;5.98;4.59;;;;;;;18.64;46.79;100717.30;;;;-49
2021/03/04 09:42:16;;;;;;;5.98;4.78;;;;;;;18.64;46.71;100712.34;;;;-51
2021/03/04 09:45:16;;;;;;;7.09;4.37;;;;;;;18.64;46.69;100710.73;;;;-48
2021/03/04 09:48:16;;;;;;;8.91;4.68;;;;;;;18.66;46.61;100704.27;;;;-53
2021/03/04 09:51:16;;;;;;;6.57;4.58;;;;;;;18.66;46.57;100709.05;;;;-49
2021/03/04 09:54:16;;;;;;;5.79;4.61;;;;;;;18.66;46.64;100705.31;;;;-53
2021/03/04 09:57:16;;;;;;;5.09;4.28;;;;;;;18.68;46.67;100705.27;;;;-51
2021/03/04 10:00:16;;;;;;;6.91;4.33;;;;;;;18.68;46.71;100699.74;;;;-50
2021/03/04 10:03:16;;;;;;;5.57;4.61;;;;;;;18.68;46.72;100701.94;;;;-53
2021/03/04 10:06:16;;;;;;;5.87;4.32;;;;;;;18.68;46.71;100700.15;;;;-51
2021/03/04 10:09:18;;;;;;;6.35;4.44;;;;;;;18.69;46.69;100693.90;;;;-50
2021/03/04 10:12:16;;;;;;;5.72;4.50;;;;;;;18.69;46.66;100686.83;;;;-49
2021/03/04 10:15:16;;;;;;;7.38;4.40;;;;;;;18.69;46.67;100691.70;;;;-50
2021/03/04 10:18:16;;;;;;;6.13;4.18;;;;;;;18.70;46.57;100689.38;;;;-58
2021/03/04 10:21:16;;;;;;;4.95;4.23;;;;;;;18.71;46.63;100682.31;;;;-53
2021/03/04 10:24:16;;;;;;;6.74;4.23;;;;;;;18.71;46.62;100682.08;;;;-46
2021/03/04 10:27:16;;;;;;;5.23;4.05;;;;;;;18.71;46.57;100683.05;;;;-66
2021/03/04 10:30:16;;;;;;;5.41;4.07;;;;;;;18.72;46.52;100683.64;;;;-65
2021/03/04 10:33:16;;;;;;;4.65;4.00;;;;;;;18.73;46.53;100679.66;;;;-51
2021/03/04 10:36:17;;;;;;;5.59;4.20;;;;;;;18.73;46.47;100678.94;;;;-61
2021/03/04 10:39:16;;;;;;;5.53;4.21;;;;;;;18.72;46.50;100676.91;;;;-62
2021/03/04 10:42:16;;;;;;;5.33;4.37;;;;;;;18.73;46.55;100679.66;;;;-60
2021/03/04 10:45:16;;;;;;;5.67;4.19;;;;;;;18.74;46.60;100680.55;;;;-50
2021/03/04 10:48:16;;;;;;;5.57;4.15;;;;;;;18.73;46.50;100680.15;;;;-54
2021/03/04 10:51:16;;;;;;;4.64;4.14;;;;;;;18.74;46.51;100669.95;;;;-50
2021/03/04 10:54:16;;;;;;;4.30;3.90;;;;;;;18.74;46.51;100672.06;;;;-59
2021/03/04 10:57:16;;;;;;;7.25;3.94;;;;;;;18.74;46.46;100671.73;;;;-59
2021/03/04 11:00:16;;;;;;;4.77;3.94;;;;;;;18.74;46.55;100673.84;;;;-51
2021/03/04 11:03:16;;;;;;;5.47;4.01;;;;;;;18.74;46.51;100667.76;;;;-51
2021/03/04 11:06:16;;;;;;;4.83;4.13;;;;;;;18.74;46.51;100668.16;;;;-57
2021/03/04 11:09:16;;;;;;;4.25;3.85;;;;;;;18.76;46.49;100669.70;;;;-61
2021/03/04 11:12:16;;;;;;;4.43;3.64;;;;;;;18.75;46.48;100660.28;;;;-57
2021/03/04 11:15:16;;;;;;;4.34;3.90;;;;;;;18.75;46.46;100659.31;;;;-57
2021/03/04 11:18:16;;;;;;;4.17;3.77;;;;;;;18.76;46.44;100651.95;;;;-51
2021/03/04 11:21:16;;;;;;;4.31;3.91;;;;;;;18.77;46.44;100646.19;;;;-55
2021/03/04 11:24:16;;;;;;;4.00;3.60;;;;;;;18.78;46.43;100639.03;;;;-57
2021/03/04 11:27:16;;;;;;;4.53;3.76;;;;;;;18.77;46.40;100637.34;;;;-61
2021/03/04 11:30:16;;;;;;;4.93;3.70;;;;;;;18.79;46.37;100636.34;;;;-54
2021/03/04 11:33:17;;;;;;;5.65;3.85;;;;;;;18.80;46.43;100634.82;;;;-54
2021/03/04 11:36:16;;;;;;;4.81;3.75;;;;;;;18.81;46.35;100629.70;;;;-62
2021/03/04 11:39:16;;;;;;;4.45;3.77;;;;;;;18.80;46.25;100624.56;;;;-64
2021/03/04 11:42:16;;;;;;;4.92;3.50;;;;;;;18.79;46.27;100622.53;;;;-64
2021/03/04 11:45:16;;;;;;;3.97;3.65;;;;;;;18.77;46.25;100624.10;;;;-62
2021/03/04 11:48:16;;;;;;;4.81;3.78;;;;;;;18.76;46.20;100612.73;;;;-62
2021/03/04 11:51:16;;;;;;;6.25;3.77;;;;;;;18.75;46.11;100612.88;;;;-62
2021/03/04 11:54:16;;;;;;;4.20;3.69;;;;;;;18.74;46.08;100606.14;;;;-62
2021/03/04 11:57:16;;;;;;;4.17;3.41;;;;;;;18.73;46.09;100605.87;;;;-62
2021/03/04 12:00:16;;;;;;;3.95;3.63;;;;;;;18.73;46.06;100587.11;;;;-52
2021/03/04 12:03:16;;;;;;;3.89;3.42;;;;;;;18.73;45.99;100587.11;;;;-62
2021/03/04 12:06:16;;;;;;;4.63;3.58;;;;;;;18.72;45.99;100584.52;;;;-51
2021/03/04 12:09:16;;;;;;;3.99;3.39;;;;;;;18.71;45.98;100582.55;;;;-59
2021/03/04 12:12:16;;;;;;;4.27;3.61;;;;;;;18.70;45.96;100581.16;;;;-65
2021/03/04 12:15:17;;;;;;;4.08;3.47;;;;;;;18.70;45.92;100569.07;;;;-59
2021/03/04 12:18:16;;;;;;;4.21;3.46;;;;;;;18.70;45.89;100566.06;;;;-62
2021/03/04 12:21:17;;;;;;;3.71;3.34;;;;;;;18.68;45.88;100555.41;;;;-64
2021/03/04 12:24:16;;;;;;;3.62;3.32;;;;;;;18.68;45.88;100549.24;;;;-62
2021/03/04 12:27:16;;;;;;;4.69;3.24;;;;;;;18.67;45.87;100550.03;;;;-62
2021/03/04 12:30:17;;;;;;;3.39;3.09;;;;;;;18.67;45.85;100543.29;;;;-62
2021/03/04 12:33:16;;;;;;;3.84;3.48;;;;;;;18.67;45.86;100541.66;;;;-64
2021/03/04 12:36:16;;;;;;;4.43;3.42;;;;;;;18.65;45.85;100535.80;;;;-62
2021/03/04 12:39:16;;;;;;;3.62;3.31;;;;;;;18.65;45.83;100532.47;;;;-64
2021/03/04 12:42:16;;;;;;;3.79;3.37;;;;;;;18.65;45.82;100528.33;;;;-62
2021/03/04 12:45:16;;;;;;;4.59;3.41;;;;;;;18.65;46.46;100527.19;;;;-57
2021/03/04 12:48:16;;;;;;;6.22;3.43;;;;;;;18.66;46.33;100525.36;;;;-54
2021/03/04 12:51:16;;;;;;;7.79;3.49;;;;;;;18.67;46.08;100518.78;;;;-58
2021/03/04 12:54:16;;;;;;;7.29;3.75;;;;;;;18.69;45.90;100518.55;;;;-57
2021/03/04 12:57:16;;;;;;;6.19;3.49;;;;;;;18.71;46.02;100511.67;;;;-59
2021/03/04 13:00:16;;;;;;;4.55;3.57;;;;;;;18.74;45.93;100513.34;;;;-58
2021/03/04 13:03:16;;;;;;;3.74;3.39;;;;;;;18.77;46.03;100511.17;;;;-58
2021/03/04 13:06:16;;;;;;;4.69;3.48;;;;;;;18.82;46.08;100505.64;;;;-63
2021/03/04 13:09:16;;;;;;;10.77;3.58;;;;;;;18.86;45.77;100502.02;;;;-54
2021/03/04 13:12:16;;;;;;;6.04;3.41;;;;;;;18.89;45.83;100502.39;;;;-54
2021/03/04 13:15:16;;;;;;;5.33;3.17;;;;;;;18.92;45.79;100492.02;;;;-54
2021/03/04 13:18:16;;;;;;;11.11;3.69;;;;;;;18.99;46.22;100496.48;;;;-51
2021/03/04 13:21:16;;;;;;;5.31;3.51;;;;;;;19.02;45.97;100497.87;;;;-52
2021/03/04 13:24:16;;;;;;;6.77;3.59;;;;;;;19.02;45.79;100495.52;;;;-52
2021/03/04 13:27:18;;;;;;;7.77;3.99;;;;;;;19.03;45.84;100491.73;;;;-49
2021/03/04 13:30:16;;;;;;;7.10;3.77;;;;;;;19.07;45.89;100495.14;;;;-52
2021/03/04 13:33:16;;;;;;;6.51;3.51;;;;;;;19.07;45.81;100490.84;;;;-51
2021/03/04 13:36:16;;;;;;;8.39;3.71;;;;;;;19.08;45.83;100496.39;;;;-52
2021/03/04 13:39:16;;;;;;;7.37;3.61;;;;;;;19.11;45.82;100500.55;;;;-52
2021/03/04 13:42:16;;;;;;;6.09;3.75;;;;;;;19.10;45.82;100503.55;;;;-52
2021/03/04 13:45:16;;;;;;;6.55;3.79;;;;;;;19.12;45.95;100503.81;;;;-52
2021/03/04 13:48:16;;;;;;;11.40;4.12;;;;;;;19.13;45.88;100504.73;;;;-52
2021/03/04 13:51:16;;;;;;;6.13;3.73;;;;;;;19.14;45.86;100501.56;;;;-52
2021/03/04 13:54:16;;;;;;;8.35;3.83;;;;;;;19.15;45.83;100504.16;;;;-52
2021/03/04 13:57:16;;;;;;;6.02;3.97;;;;;;;19.18;45.73;100503.78;;;;-51
2021/03/04 14:00:16;;;;;;;6.21;3.90;;;;;;;19.20;45.72;100496.73;;;;-51
2021/03/04 14:03:16;;;;;;;7.69;3.76;;;;;;;19.20;45.77;100497.55;;;;-54
2021/03/04 14:06:16;;;;;;;6.73;3.67;;;;;;;19.24;45.97;100493.36;;;;-50
2021/03/04 14:09:16;;;;;;;5.89;3.59;;;;;;;19.28;46.05;100490.19;;;;-51
2021/03/04 14:12:16;;;;;;;4.39;3.52;;;;;;;19.32;46.05;100489.36;;;;-53
2021/03/04 14:15:16;;;;;;;6.35;3.85;;;;;;;19.28;45.89;100484.13;;;;-59
2021/03/04 14:18:16;;;;;;;7.22;3.59;;;;;;;19.32;45.75;100481.07;;;;-51
2021/03/04 14:21:16;;;;;;;6.15;3.80;;;;;;;19.32;45.72;100480.83;;;;-51
2021/03/04 14:24:16;;;;;;;8.11;3.72;;;;;;;19.34;45.82;100474.80;;;;-52
2021/03/04 14:27:16;;;;;;;7.55;3.91;;;;;;;19.33;45.36;100473.59;;;;-59
2021/03/04 14:30:16;;;;;;;6.84;3.75;;;;;;;19.34;45.71;100473.02;;;;-64
2021/03/04 14:33:16;;;;;;;5.02;3.63;;;;;;;19.34;45.67;100475.48;;;;-61
2021/03/04 14:36:16;;;;;;;6.68;3.85;;;;;;;19.36;45.71;100472.73;;;;-52
2021/03/04 14:39:16;;;;;;;5.92;3.57;;;;;;;19.37;45.75;100473.13;;;;-50
2021/03/04 14:42:16;;;;;;;9.38;3.91;;;;;;;19.38;45.63;100472.50;;;;-51
2021/03/04 14:45:16;;;;;;;6.01;3.61;;;;;;;19.39;45.52;100469.41;;;;-54
2021/03/04 14:48:16;;;;;;;4.19;3.45;;;;;;;19.40;45.78;100466.34;;;;-51
2021/03/04 14:51:18;;;;;;;5.08;3.47;;;;;;;19.41;45.70;100461.05;;;;-49
2021/03/04 14:54:16;;;;;;;5.12;3.45;;;;;;;19.42;45.57;100461.77;;;;-50
2021/03/04 14:57:16;;;;;;;6.93;3.71;;;;;;;19.44;45.54;100459.03;;;;-49
2021/03/04 15:00:16;;;;;;;5.03;3.59;;;;;;;19.45;45.58;100457.59;;;;-48
2021/03/04 15:03:16;;;;;;;6.20;3.62;;;;;;;19.46;45.57;100447.50;;;;-48
2021/03/04 15:06:16;;;;;;;5.89;3.65;;;;;;;19.47;45.47;100447.20;;;;-53
2021/03/04 15:09:16;;;;;;;4.53;3.57;;;;;;;19.47;45.50;100442.81;;;;-63
2021/03/04 15:12:16;;;;;;;5.99;3.69;;;;;;;19.48;45.46;100434.09;;;;-52
2021/03/04 15:15:16;;;;;;;4.37;3.34;;;;;;;19.50;45.47;100432.73;;;;-61
2021/03/04 15:18:16;;;;;;;5.65;3.39;;;;;;;19.50;45.31;100428.42;;;;-58
2021/03/04 15:21:17;;;;;;;5.69;3.40;;;;;;;19.51;45.51;100432.67;;;;-56
2021/03/04 15:24:16;;;;;;;5.33;3.36;;;;;;;19.52;45.40;100426.09;;;;-50
2021/03/04 15:27:16;;;;;;;4.42;3.33;;;;;;;19.52;45.42;100419.17;;;;-48
2021/03/04 15:30:16;;;;;;;6.13;3.54;;;;;;;19.54;45.59;100417.80;;;;-49
2021/03/04 15:33:16;;;;;;;5.82;3.41;;;;;;;19.54;45.51;100410.97;;;;-60
2021/03/04 15:36:16;;;;;;;5.47;3.71;;;;;;;19.55;45.46;100402.22;;;;-59
2021/03/04 15:39:16;;;;;;;4.33;3.41;;;;;;;19.57;45.39;100399.37;;;;-62
2021/03/04 15:42:16;;;;;;;3.71;3.16;;;;;;;19.57;45.21;100397.02;;;;-63
2021/03/04 15:45:17;;;;;;;4.80;3.32;;;;;;;19.58;45.15;100398.55;;;;-62
2021/03/04 15:48:16;;;;;;;5.47;3.37;;;;;;;19.59;45.11;100396.38;;;;-62
2021/03/04 15:51:16;;;;;;;4.20;3.31;;;;;;;19.60;45.16;100394.50;;;;-58
2021/03/04 15:54:16;;;;;;;6.46;3.15;;;;;;;19.58;45.64;100395.30;;;;-51
2021/03/04 15:57:16;;;;;;;10.60;3.83;;;;;;;19.55;45.65;100393.25;;;;-49
2021/03/04 16:00:16;;;;;;;13.51;4.37;;;;;;;19.41;45.17;100392.38;;;;-61
2021/03/04 16:03:16;;;;;;;9.33;4.31;;;;;;;19.27;45.36;100390.09;;;;-51
2021/03/04 16:06:16;;;;;;;11.29;4.08;;;;;;;19.36;45.38;100384.73;;;;-58
2021/03/04 16:09:16;;;;;;;9.97;3.71;;;;;;;19.43;45.42;100381.27;;;;-54
2021/03/04 16:12:16;;;;;;;6.52;3.67;;;;;;;19.45;45.11;100375.82;;;;-54
2021/03/04 16:15:17;;;;;;;6.36;3.57;;;;;;;19.48;45.09;100367.86;;;;-54
2021/03/04 16:18:16;;;;;;;7.03;3.30;;;;;;;19.51;45.04;100360.98;;;;-54
2021/03/04 16:21:16;;;;;;;5.35;3.41;;;;;;;19.53;45.05;100358.77;;;;-54
2021/03/04 16:24:17;;;;;;;7.23;3.35;;;;;;;19.55;45.02;100363.12;;;;-54
2021/03/04 16:27:16;;;;;;;6.88;3.35;;;;;;;19.56;44.97;100357.17;;;;-53
2021/03/04 16:30:16;;;;;;;5.02;3.19;;;;;;;19.57;45.00;100362.63;;;;-54
2021/03/04 16:33:16;;;;;;;6.51;3.37;;;;;;;19.58;45.00;100361.25;;;;-54
2021/03/04 16:36:16;;;;;;;5.58;3.27;;;;;;;19.59;44.96;100360.59;;;;-54
2021/03/04 16:39:16;;;;;;;6.11;3.27;;;;;;;19.61;44.96;100364.52;;;;-54